Weather Data

Pearl Creek Farm: 8878 N Farm Road 75, Walnut Grove MO 65770

<== Previous Day (Monday 22 Sep 2014) | Next Day (Wednesday 24 Sep 2014) ==>

Summary Precipitation Data For Tuesday 23 September 2014

ElementValueUnits
Precipitation0"
Notes(none)
SourcePearl Creek Farm

Summary Temperature Data For Tuesday 23 September 2014

ElementValueUnits
High Temperature74 oF
Low Temperature50 oF
Average Temperature61 oF
High Humidity93 %
Low Humidity53 %
Average Humidity77 %
SourcePearl Creek Farm

Detail Temperature Data For Tuesday 23 September 2014

Date / TimeTemp (F)RH (%)Dew Pt (F)Report Date / TimeSource
2014-09-23 00:00:00 55 86 50.7 2014-11-02 13:41:02 Pearl Creek Farm
2014-09-23 00:30:00 55 86 50.9 2014-11-02 13:41:02 Pearl Creek Farm
2014-09-23 01:00:00 54 87 50.1 2014-11-02 13:41:02 Pearl Creek Farm
2014-09-23 01:30:00 54 87 50.1 2014-11-02 13:41:02 Pearl Creek Farm
2014-09-23 02:00:00 54 88 50.4 2014-11-02 13:41:02 Pearl Creek Farm
2014-09-23 02:30:00 53 88 49.4 2014-11-02 13:41:02 Pearl Creek Farm
2014-09-23 03:00:00 53 88 49.5 2014-11-02 13:41:02 Pearl Creek Farm
2014-09-23 03:30:00 53 89 49.7 2014-11-02 13:41:02 Pearl Creek Farm
2014-09-23 04:00:00 54 89 50.7 2014-11-02 13:41:02 Pearl Creek Farm
2014-09-23 04:30:00 53 89 49.7 2014-11-02 13:41:02 Pearl Creek Farm
2014-09-23 05:00:00 53 89 49.7 2014-11-02 13:41:02 Pearl Creek Farm
2014-09-23 05:30:00 53 89 49.7 2014-11-02 13:41:02 Pearl Creek Farm
2014-09-23 06:00:00 52 89 48.9 2014-11-02 13:41:02 Pearl Creek Farm
2014-09-23 06:30:00 52 89 48.7 2014-11-02 13:41:02 Pearl Creek Farm
2014-09-23 07:00:00 51 89 47.9 2014-11-02 13:41:02 Pearl Creek Farm
2014-09-23 07:30:00 50 89 46.7 2014-11-02 13:41:02 Pearl Creek Farm
2014-09-23 08:00:00 50 90 47.0 2014-11-02 13:41:02 Pearl Creek Farm
2014-09-23 08:30:00 52 92 49.6 2014-11-02 13:41:02 Pearl Creek Farm
2014-09-23 09:00:00 54 93 52.0 2014-11-02 13:41:02 Pearl Creek Farm
2014-09-23 09:30:00 56 91 53.4 2014-11-02 13:41:02 Pearl Creek Farm
2014-09-23 10:00:00 59 85 54.5 2014-11-02 13:41:02 Pearl Creek Farm
2014-09-23 10:30:00 62 79 55.2 2014-11-02 13:41:02 Pearl Creek Farm
2014-09-23 11:00:00 64 77 56.5 2014-11-02 13:41:02 Pearl Creek Farm
2014-09-23 11:30:00 65 71 55.4 2014-11-02 13:41:02 Pearl Creek Farm
2014-09-23 12:00:00 67 69 56.5 2014-11-02 13:41:02 Pearl Creek Farm
2014-09-23 12:30:00 69 66 57.2 2014-11-02 13:41:02 Pearl Creek Farm
2014-09-23 13:00:00 70 61 55.9 2014-11-02 13:41:02 Pearl Creek Farm
2014-09-23 13:30:00 72 58 56.4 2014-11-02 13:41:02 Pearl Creek Farm
2014-09-23 14:00:00 73 59 57.6 2014-11-02 13:41:02 Pearl Creek Farm
2014-09-23 14:30:00 73 58 57.4 2014-11-02 13:41:02 Pearl Creek Farm
2014-09-23 15:00:00 74 59 58.5 2014-11-02 13:41:02 Pearl Creek Farm
2014-09-23 15:30:00 73 55 55.6 2014-11-02 13:41:02 Pearl Creek Farm
2014-09-23 16:00:00 74 53 55.5 2014-11-02 13:41:02 Pearl Creek Farm
2014-09-23 16:30:00 74 59 58.5 2014-11-02 13:41:02 Pearl Creek Farm
2014-09-23 17:00:00 74 57 57.6 2014-11-02 13:41:02 Pearl Creek Farm
2014-09-23 17:30:00 73 57 56.6 2014-11-02 13:41:02 Pearl Creek Farm
2014-09-23 18:00:00 72 65 59.4 2014-11-02 13:41:02 Pearl Creek Farm
2014-09-23 18:30:00 70 66 57.9 2014-11-02 13:41:02 Pearl Creek Farm
2014-09-23 19:00:00 68 70 57.9 2014-11-02 13:41:02 Pearl Creek Farm
2014-09-23 19:30:00 66 72 56.7 2014-11-02 13:41:02 Pearl Creek Farm
2014-09-23 20:00:00 64 74 55.6 2014-11-02 13:41:02 Pearl Creek Farm
2014-09-23 20:30:00 62 77 54.7 2014-11-02 13:41:02 Pearl Creek Farm
2014-09-23 21:00:00 60 79 53.5 2014-11-02 13:41:02 Pearl Creek Farm
2014-09-23 21:30:00 59 79 52.3 2014-11-02 13:41:02 Pearl Creek Farm
2014-09-23 22:00:00 58 82 52.5 2014-11-02 13:41:02 Pearl Creek Farm
2014-09-23 22:30:00 58 84 53.0 2014-11-02 13:41:02 Pearl Creek Farm
2014-09-23 23:00:00 58 84 53.2 2014-11-02 13:41:02 Pearl Creek Farm
2014-09-23 23:30:00 57 85 52.5 2014-11-02 13:41:02 Pearl Creek Farm

A total of 48 rows are displayed.